Faribault, MN

12:10 PM CDT on June 26, 2017 (GMT -0500)
Faribault Municipal

Weather History for KFBL - January, 2014

Change the Weather History Date:

Saturday, January 4, 2014

  Actual Average Record
Temperature  
Mean Temperature 19 °F -  
Max Temperature 37 °F 21 °F 41 °F (1964)
Min Temperature 1 °F 2 °F -23 °F (1969)
Degree Days  
Heating Degree Days 46    
Moisture  
Dew Point 6 °F    
Average Humidity 61    
Maximum Humidity 75    
Minimum Humidity 45    
Precipitation  
Precipitation 0.00 in - - ()
Sea Level Pressure  
Sea Level Pressure 29.88 in    
Wind  
Wind Speed 12 mph (WNW)    
Max Wind Speed 20 mph    
Max Gust Speed 32 mph    
Visibility 10 miles    
Events Snow    
Averages and records for this station are not official NWS values.
T = Trace of Precipitation, MM = Missing Value Source: NWS Daily Summary

Daily Weather History Graph

Daily Weather History Graph

Search for Another Location

Airport or City:

Trip Planner

Search our weather history database for the weather conditions in past years. The results will help you decide how hot, cold, wet, or windy it might be!

Date:

Astronomy

Jan. 04, 2014 Rise Set
Actual Time 7:49 AM CST 4:47 PM CST
Civil Twilight 7:16 AM CST 5:20 PM CST
Nautical Twilight 6:39 AM CST 5:57 PM CST
Astronomical Twilight 6:04 AM CST 6:32 PM CST
Moon 9:45 AM CST (1/4) 9:18 PM CST (1/4)
Length of Visible Light 10h 04m
Length of Day
8h 58m
Waxing Crescent, 15% of the Moon is Illuminated
Jan 4
Waxing Crescent
Jan 7
First Quarter
Jan 15
Full
Jan 23
Last Quarter
Jan 30
New

Hourly Weather History & Observations

Time (CST) Temp. Windchill Dew Point Humidity Pressure Visibility Wind Dir Wind Speed Gust Speed Precip Events Conditions
12:14 AM 30.2 °F 20.2 °F 21.2 °F 69% 29.46 in 7.0 mi South 12.7 mph 17.3 mph N/A Snow Light Snow
12:34 AM 30.2 °F 20.8 °F 23.0 °F 75% 29.46 in 7.0 mi South 11.5 mph - N/A Snow Light Snow
12:53 AM 32.0 °F 24.2 °F 24.8 °F 75% 29.45 in 7.0 mi South 9.2 mph 23.0 mph N/A   Overcast
1:14 AM 32.0 °F 24.2 °F 24.8 °F 75% 29.45 in 7.0 mi South 9.2 mph - N/A Snow Light Snow
1:34 AM 32.0 °F 22.5 °F 24.8 °F 75% 29.46 in 10.0 mi South 12.7 mph 16.1 mph N/A   Overcast
1:54 AM 33.8 °F 24.8 °F 24.8 °F 70% 29.46 in 10.0 mi SSW 12.7 mph 17.3 mph N/A   Overcast
2:14 AM 33.8 °F 25.8 °F 24.8 °F 70% 29.47 in 10.0 mi SSW 10.4 mph 20.7 mph N/A   Overcast
2:33 AM 33.8 °F 25.8 °F 24.8 °F 70% 29.49 in 10.0 mi SSW 10.4 mph - N/A   Mostly Cloudy
2:54 AM 33.8 °F 27.7 °F 26.6 °F 75% 29.49 in 10.0 mi South 6.9 mph - N/A   Mostly Cloudy
3:14 AM 33.8 °F 27.7 °F 26.6 °F 75% 29.49 in 10.0 mi SSW 6.9 mph - N/A   Overcast
3:34 AM 35.6 °F 30.7 °F 26.6 °F 70% 29.49 in 10.0 mi SW 5.8 mph - N/A   Overcast
3:54 AM 35.6 °F 29.2 °F 28.4 °F 75% 29.50 in 10.0 mi WSW 8.1 mph - N/A   Overcast
4:13 AM 37.4 °F 32.1 °F 28.4 °F 70% 29.51 in 10.0 mi SW 6.9 mph - N/A   Overcast
4:34 AM 37.4 °F 27.2 °F 28.4 °F 70% 29.54 in 10.0 mi West 19.6 mph 28.8 mph N/A   Mostly Cloudy
4:54 AM 28.4 °F 16.2 °F 19.4 °F 69% 29.57 in 10.0 mi West 17.3 mph 32.2 mph N/A   Overcast
5:14 AM 24.8 °F 12.4 °F 15.8 °F 69% 29.60 in 7.0 mi West 15.0 mph - N/A   Overcast
5:34 AM 23.0 °F 10.6 °F 15.8 °F 74% 29.62 in 7.0 mi West 13.8 mph 20.7 mph N/A   Overcast
5:53 AM 21.2 °F 7.3 °F 14.0 °F 74% 29.64 in 7.0 mi West 16.1 mph 23.0 mph N/A   Overcast
6:14 AM 21.2 °F 6.4 °F 12.2 °F 68% 29.67 in 7.0 mi West 18.4 mph 24.2 mph N/A   Overcast
6:34 AM 21.2 °F 6.0 °F 12.2 °F 68% 29.68 in 10.0 mi West 19.6 mph 26.5 mph N/A   Overcast
6:54 AM 21.2 °F 7.3 °F 12.2 °F 68% 29.70 in 10.0 mi West 16.1 mph 25.3 mph N/A   Overcast
7:14 AM 21.2 °F 7.3 °F 12.2 °F 68% 29.72 in 10.0 mi West 16.1 mph 26.5 mph N/A   Overcast
7:34 AM 21.2 °F 6.0 °F 12.2 °F 68% 29.74 in 10.0 mi West 19.6 mph 23.0 mph N/A   Mostly Cloudy
7:54 AM 21.2 °F 7.3 °F 10.4 °F 63% 29.75 in 10.0 mi WNW 16.1 mph 25.3 mph N/A   Overcast
8:14 AM 19.4 °F 6.6 °F 10.4 °F 68% 29.77 in 10.0 mi WNW 12.7 mph 23.0 mph N/A   Overcast
8:34 AM 19.4 °F 4.1 °F 8.6 °F 63% 29.81 in 10.0 mi WNW 18.4 mph 28.8 mph N/A   Overcast
8:54 AM 17.6 °F 3.7 °F 6.8 °F 63% 29.83 in 10.0 mi WNW 13.8 mph - N/A   Mostly Cloudy
9:14 AM 17.6 °F 4.3 °F 6.8 °F 63% 29.84 in 10.0 mi WNW 12.7 mph 26.5 mph N/A   Mostly Cloudy
9:34 AM 17.6 °F 1.7 °F 6.8 °F 63% 29.84 in 10.0 mi NW 18.4 mph 26.5 mph N/A   Overcast
9:53 AM 17.6 °F 3.2 °F 6.8 °F 63% 29.86 in 10.0 mi NW 15.0 mph 25.3 mph N/A   Scattered Clouds
10:14 AM 17.6 °F 3.2 °F 6.8 °F 63% 29.89 in 10.0 mi WNW 15.0 mph 20.7 mph N/A   Clear
10:34 AM 17.6 °F 3.2 °F 6.8 °F 63% 29.92 in 10.0 mi WNW 15.0 mph 19.6 mph N/A   Scattered Clouds
10:54 AM 17.6 °F 3.2 °F 6.8 °F 63% 29.92 in 10.0 mi WNW 15.0 mph 19.6 mph N/A   Scattered Clouds
11:14 AM 17.6 °F 3.2 °F 6.8 °F 63% 29.90 in 10.0 mi NW 15.0 mph 21.9 mph N/A   Scattered Clouds
11:34 AM 17.6 °F 2.7 °F 5.0 °F 58% 29.91 in 10.0 mi NW 16.1 mph 21.9 mph N/A   Scattered Clouds
11:54 AM 19.4 °F 7.2 °F 3.2 °F 49% 29.91 in 10.0 mi NW 11.5 mph 20.7 mph N/A   Clear
12:14 PM 19.4 °F 7.9 °F 3.2 °F 49% 29.93 in 10.0 mi NW 10.4 mph 20.7 mph N/A   Clear
12:34 PM 19.4 °F 7.9 °F 5.0 °F 54% 29.93 in 10.0 mi NW 10.4 mph 18.4 mph N/A   Clear
12:54 PM 19.4 °F 7.9 °F 5.0 °F 54% 29.93 in 10.0 mi NW 10.4 mph 18.4 mph N/A   Clear
1:14 PM 19.4 °F 5.5 °F 3.2 °F 49% 29.92 in 10.0 mi WNW 15.0 mph - N/A   Clear
1:34 PM 19.4 °F 6.0 °F 3.2 °F 49% 29.95 in 10.0 mi WNW 13.8 mph 21.9 mph N/A   Clear
1:54 PM 19.4 °F 6.0 °F 3.2 °F 49% 29.96 in 10.0 mi WNW 13.8 mph - N/A   Clear
2:14 PM 17.6 °F 2.2 °F 3.2 °F 53% 29.97 in 10.0 mi NW 17.3 mph 24.2 mph N/A   Clear
2:34 PM 17.6 °F 5.0 °F 3.2 °F 53% 29.99 in 10.0 mi WNW 11.5 mph 18.4 mph N/A   Clear
2:54 PM 17.6 °F 3.7 °F -0.4 °F 45% 30.00 in 10.0 mi WNW 13.8 mph - N/A   Clear
3:14 PM 17.6 °F 4.3 °F 1.4 °F 49% 30.01 in 10.0 mi WNW 12.7 mph 19.6 mph N/A   Clear
3:34 PM 15.8 °F 1.4 °F 1.4 °F 53% 30.03 in 10.0 mi NW 13.8 mph 18.4 mph N/A   Clear
3:54 PM 15.8 °F 2.1 °F 1.4 °F 53% 30.04 in 10.0 mi WNW 12.7 mph 16.1 mph N/A   Clear
4:14 PM 15.8 °F 2.1 °F 1.4 °F 53% 30.06 in 10.0 mi West 12.7 mph 17.3 mph N/A   Clear
4:34 PM 14.0 °F 1.2 °F 1.4 °F 57% 30.06 in 10.0 mi WNW 10.4 mph 17.3 mph N/A   Clear
4:54 PM 12.2 °F -1.8 °F -0.4 °F 57% 30.07 in 10.0 mi WNW 11.5 mph - N/A   Clear
5:13 PM 10.4 °F -1.5 °F -2.2 °F 57% 30.08 in 10.0 mi WNW 8.1 mph - N/A   Clear
5:34 PM 10.4 °F -2.4 °F -2.2 °F 57% 30.09 in 10.0 mi WNW 9.2 mph 16.1 mph N/A   Clear
5:54 PM 10.4 °F -0.4 °F -2.2 °F 57% 30.09 in 10.0 mi WNW 6.9 mph - N/A   Clear
6:14 PM 10.4 °F -1.5 °F -4.0 °F 52% 30.12 in 10.0 mi WNW 8.1 mph - N/A   Clear
6:34 PM 8.6 °F -7.0 °F -5.8 °F 52% 30.14 in 10.0 mi WNW 12.7 mph - N/A   Clear
6:53 PM 8.6 °F -3.7 °F -7.6 °F 48% 30.14 in 10.0 mi WNW 8.1 mph - N/A   Clear
7:14 PM 8.6 °F -6.3 °F -7.6 °F 48% 30.14 in 10.0 mi NW 11.5 mph - N/A   Clear
7:34 PM 6.8 °F -5.9 °F -7.6 °F 52% 30.14 in 10.0 mi WNW 8.1 mph - N/A   Clear
7:54 PM 6.8 °F -7.8 °F -7.6 °F 52% 30.15 in 10.0 mi NW 10.4 mph - N/A   Clear
8:14 PM 6.8 °F -7.8 °F -7.6 °F 52% 30.16 in 10.0 mi WNW 10.4 mph - N/A   Clear
8:34 PM 6.8 °F -7.8 °F -7.6 °F 52% 30.17 in 10.0 mi WNW 10.4 mph 17.3 mph N/A   Clear
8:54 PM 5.0 °F -9.1 °F -7.6 °F 56% 30.17 in 10.0 mi WNW 9.2 mph - N/A   Clear
9:14 PM 5.0 °F -8.1 °F -7.6 °F 56% 30.18 in 10.0 mi WNW 8.1 mph - N/A   Clear
9:34 PM 3.2 °F -10.3 °F -7.6 °F 61% 30.19 in 10.0 mi WNW 8.1 mph - N/A   Clear
9:54 PM 3.2 °F -11.3 °F -7.6 °F 61% 30.20 in 10.0 mi WNW 9.2 mph - N/A   Clear
10:14 PM 3.2 °F -7.8 °F -9.4 °F 56% 30.21 in 10.0 mi WNW 5.8 mph - N/A   Clear
10:34 PM 1.4 °F -13.5 °F -9.4 °F 61% 30.22 in 10.0 mi WNW 9.2 mph - N/A   Clear
10:54 PM 1.4 °F -9.9 °F -9.4 °F 61% 30.21 in 10.0 mi NW 5.8 mph - N/A   Clear
11:14 PM 1.4 °F -12.5 °F -9.4 °F 61% 30.22 in 10.0 mi NW 8.1 mph - N/A   Clear
11:34 PM 1.4 °F -12.5 °F -9.4 °F 61% 30.22 in 10.0 mi NW 8.1 mph - N/A   Clear
11:54 PM 1.4 °F -13.5 °F -11.2 °F 56% 30.23 in 10.0 mi NW 9.2 mph - N/A   Clear